createdAt,value
2022-12-08T00:01:23.741Z,94095.44
2022-12-08T00:03:51.715Z,94099.38
2022-12-08T00:06:50.030Z,94107.94
2022-12-08T00:09:39.420Z,94106.56
2022-12-08T00:12:11.100Z,94103.00
2022-12-08T00:14:45.316Z,94099.50
2022-12-08T00:17:15.056Z,94091.25
2022-12-08T00:19:42.709Z,94097.00
2022-12-08T00:22:11.196Z,94091.34
2022-12-08T00:24:39.910Z,94080.56
2022-12-08T00:27:09.320Z,94080.66
2022-12-08T00:29:36.113Z,94071.13
2022-12-08T00:32:03.331Z,94068.66
2022-12-08T00:34:31.634Z,94071.13
2022-12-08T00:36:58.384Z,94060.44
2022-12-08T00:39:25.226Z,94065.63
2022-12-08T00:42:10.522Z,94063.97
2022-12-08T00:44:37.267Z,94062.66
2022-12-08T00:47:04.315Z,94075.72
2022-12-08T00:49:31.029Z,94064.09
2022-12-08T00:51:57.771Z,94052.22
2022-12-08T00:54:24.578Z,94051.66
2022-12-08T00:56:51.746Z,94065.38
2022-12-08T00:59:19.093Z,94055.63
2022-12-08T01:01:46.974Z,94055.50
2022-12-08T01:04:17.431Z,94048.94
2022-12-08T01:06:45.004Z,94039.97
2022-12-08T01:09:14.224Z,94052.22
2022-12-08T01:11:40.980Z,94051.78
2022-12-08T01:14:07.751Z,94047.81
2022-12-08T01:16:36.479Z,94048.16
2022-12-08T01:19:03.898Z,94052.84
2022-12-08T01:21:30.650Z,94055.69
2022-12-08T01:24:00.549Z,94057.81
2022-12-08T01:26:27.562Z,94058.06
2022-12-08T01:28:54.689Z,94053.72
2022-12-08T01:31:22.807Z,94061.00
2022-12-08T01:33:50.242Z,94053.63
2022-12-08T01:36:20.018Z,94054.44
2022-12-08T01:38:46.782Z,94049.31
2022-12-08T01:41:19.824Z,94049.31
2022-12-08T01:44:08.259Z,94047.88
2022-12-08T01:46:44.765Z,94051.91
2022-12-08T01:49:18.116Z,94042.38
2022-12-08T01:52:11.578Z,94042.09
2022-12-08T01:54:51.697Z,94048.84
2022-12-08T01:57:26.457Z,94042.28
2022-12-08T02:00:15.089Z,94042.00
2022-12-08T02:02:56.507Z,94045.56
2022-12-08T02:05:27.663Z,94036.84
2022-12-08T02:07:56.058Z,94029.56
2022-12-08T02:10:25.080Z,94037.91
2022-12-08T02:12:54.324Z,94013.63
2022-12-08T02:15:34.158Z,94035.69
2022-12-08T02:18:16.019Z,94027.13
2022-12-08T02:21:13.307Z,94025.78
2022-12-08T02:23:48.796Z,94019.91
2022-12-08T02:26:30.548Z,94020.88
2022-12-08T02:29:38.581Z,94021.81
2022-12-08T02:32:42.660Z,94012.66
2022-12-08T02:35:24.461Z,94014.19
2022-12-08T02:38:05.312Z,94004.47
2022-12-08T02:41:07.043Z,94001.97
2022-12-08T02:43:44.137Z,94005.88
2022-12-08T02:46:43.669Z,93994.84
2022-12-08T02:49:10.752Z,94006.34
2022-12-08T02:51:37.497Z,93991.06
2022-12-08T02:54:04.492Z,93991.56
2022-12-08T02:56:55.740Z,93987.22
2022-12-08T02:59:47.897Z,93978.69
2022-12-08T03:02:42.516Z,93992.53
2022-12-08T03:05:37.484Z,93987.34
2022-12-08T03:08:16.456Z,93980.09
2022-12-08T03:11:02.599Z,93982.94
2022-12-08T03:13:45.826Z,93973.50
2022-12-08T03:16:19.078Z,93974.09
2022-12-08T03:18:53.529Z,93973.03
2022-12-08T03:21:22.292Z,93954.72
2022-12-08T03:23:53.505Z,93969.06
2022-12-08T03:26:31.408Z,93968.25
2022-12-08T03:28:58.612Z,93961.56
2022-12-08T03:31:29.476Z,93959.91
2022-12-08T03:33:58.738Z,93964.38
2022-12-08T03:36:26.050Z,93957.47
2022-12-08T03:38:54.157Z,93957.31
2022-12-08T03:41:23.358Z,93953.09
2022-12-08T03:43:59.427Z,93953.59
2022-12-08T03:48:56.943Z,93950.31
2022-12-08T03:51:24.998Z,93942.53
2022-12-08T03:53:51.919Z,93941.47
2022-12-08T03:56:27.525Z,93948.31
2022-12-08T03:58:55.344Z,93949.59
2022-12-08T04:01:23.187Z,93948.31
2022-12-08T04:03:50.538Z,93941.16
2022-12-08T04:06:18.074Z,93944.91
2022-12-08T04:08:44.984Z,93932.69
2022-12-08T04:11:12.491Z,93936.19
2022-12-08T04:13:41.607Z,93929.53
2022-12-08T04:16:09.745Z,93942.78
2022-12-08T04:18:36.533Z,93924.00
2022-12-08T04:21:03.378Z,93923.19
2022-12-08T04:23:30.154Z,93914.84
2022-12-08T04:25:56.920Z,93926.34
2022-12-08T04:28:23.650Z,93916.84
2022-12-08T04:30:50.457Z,93927.53
2022-12-08T04:33:17.590Z,93929.28
2022-12-08T04:35:44.461Z,93913.44
2022-12-08T04:38:11.452Z,93917.56
2022-12-08T04:40:38.548Z,93923.75
2022-12-08T04:43:05.313Z,93909.00
2022-12-08T04:45:32.871Z,93914.38
2022-12-08T04:48:01.379Z,93927.16
2022-12-08T04:50:28.738Z,93917.63
2022-12-08T04:52:55.473Z,93913.41
2022-12-08T04:55:22.360Z,93905.44
2022-12-08T04:57:49.083Z,93921.03
2022-12-08T05:00:16.625Z,93905.06
2022-12-08T05:02:43.409Z,93916.44
2022-12-08T05:05:10.761Z,93913.25
2022-12-08T05:07:37.750Z,93913.00
2022-12-08T05:10:06.062Z,93913.72
2022-12-08T05:12:33.430Z,93907.38
2022-12-08T05:15:00.142Z,93909.34
2022-12-08T05:17:26.878Z,93901.38
2022-12-08T05:19:53.771Z,93897.84
2022-12-08T05:22:20.497Z,93895.59
2022-12-08T05:24:47.816Z,93889.50
2022-12-08T05:27:15.158Z,93896.97
2022-12-08T05:29:42.515Z,93895.47
2022-12-08T05:32:09.361Z,93892.38
2022-12-08T05:34:36.169Z,93888.38
2022-12-08T05:37:02.917Z,93884.19
2022-12-08T05:39:29.664Z,93884.38
2022-12-08T05:41:56.383Z,93887.22
2022-12-08T05:44:23.169Z,93891.03
2022-12-08T05:46:49.940Z,93889.53
2022-12-08T05:49:16.720Z,93891.16
2022-12-08T05:51:43.697Z,93890.06
2022-12-08T05:54:10.602Z,93881.38
2022-12-08T05:56:37.343Z,93882.28
2022-12-08T05:59:07.242Z,93893.19
2022-12-08T06:01:34.673Z,93884.03
2022-12-08T06:04:03.778Z,93897.38
2022-12-08T06:06:36.422Z,93891.06
2022-12-08T06:09:04.580Z,93890.09
2022-12-08T06:11:32.910Z,93889.13
2022-12-08T06:14:00.684Z,93887.59
2022-12-08T06:16:28.808Z,93892.13
2022-12-08T06:18:56.858Z,93904.09
2022-12-08T06:21:24.190Z,93892.28
2022-12-08T06:23:53.557Z,93893.91
2022-12-08T06:26:21.684Z,93906.31
2022-12-08T06:28:49.720Z,93906.31
2022-12-08T06:31:25.217Z,93903.50
2022-12-08T06:33:53.394Z,93908.78
2022-12-08T06:36:24.658Z,93898.16
2022-12-08T06:38:52.097Z,93902.41
2022-12-08T06:41:18.931Z,93902.13
2022-12-08T06:43:46.078Z,93907.38
2022-12-08T06:46:19.348Z,93891.72
2022-12-08T06:48:46.395Z,93905.31
2022-12-08T06:51:18.010Z,93906.13
2022-12-08T06:53:46.445Z,93904.69
2022-12-08T06:56:15.834Z,93903.06
2022-12-08T06:58:46.071Z,93906.56
2022-12-08T07:01:17.409Z,93903.41
2022-12-08T07:03:44.461Z,93889.19
2022-12-08T07:06:17.390Z,93901.63
2022-12-08T07:08:44.359Z,93897.00
2022-12-08T07:11:18.056Z,93908.84
2022-12-08T07:13:47.896Z,93904.00
2022-12-08T07:16:14.711Z,93910.69
2022-12-08T07:18:43.087Z,93899.19
2022-12-08T07:21:13.424Z,93893.00
2022-12-08T07:23:40.216Z,93904.63
2022-12-08T07:26:10.254Z,93908.03
2022-12-08T07:28:39.919Z,93913.28
2022-12-08T07:31:08.713Z,93914.09
2022-12-08T07:33:36.284Z,93907.72
2022-12-08T07:36:05.562Z,93908.66
2022-12-08T07:38:32.599Z,93901.44
2022-12-08T07:40:59.693Z,93917.28
2022-12-08T07:43:26.517Z,93902.50
2022-12-08T07:45:53.435Z,93905.06
2022-12-08T07:48:20.657Z,93904.84
2022-12-08T07:50:47.719Z,93912.13
2022-12-08T07:53:14.814Z,93901.75
2022-12-08T07:55:43.331Z,93916.16
2022-12-08T07:58:11.213Z,93894.16
2022-12-08T08:00:38.048Z,93909.69
2022-12-08T08:03:04.966Z,93912.13
2022-12-08T08:05:31.949Z,93910.41
2022-12-08T08:07:58.738Z,93910.69
2022-12-08T08:10:25.712Z,93917.69
2022-12-08T08:12:52.556Z,93905.25
2022-12-08T08:15:23.260Z,93915.09
2022-12-08T08:17:53.651Z,93913.94
2022-12-08T08:20:21.196Z,93914.56
2022-12-08T08:22:51.693Z,93909.78
2022-12-08T08:25:20.536Z,93897.44
2022-12-08T08:27:47.259Z,93901.50
2022-12-08T08:30:19.886Z,93904.81
2022-12-08T08:32:47.533Z,93914.88
2022-12-08T08:35:14.671Z,93909.69
2022-12-08T08:37:47.103Z,93903.69
2022-12-08T08:40:15.741Z,93908.56
2022-12-08T08:42:42.446Z,93892.91
2022-12-08T08:45:09.654Z,93905.84
2022-12-08T08:47:36.376Z,93896.63
2022-12-08T08:50:04.860Z,93894.03
2022-12-08T08:52:31.860Z,93898.28
2022-12-08T08:54:58.585Z,93903.00
2022-12-08T08:57:26.086Z,93890.81
2022-12-08T08:59:54.013Z,93888.72
2022-12-08T09:02:22.064Z,93889.69
2022-12-08T09:04:49.246Z,93893.72
2022-12-08T09:07:16.472Z,93893.72
2022-12-08T09:09:43.786Z,93895.47
2022-12-08T09:12:10.657Z,93889.25
2022-12-08T09:14:37.607Z,93884.38
2022-12-08T09:17:04.769Z,93885.31
2022-12-08T09:19:32.383Z,93882.97
2022-12-08T09:21:59.103Z,93871.69
2022-12-08T09:24:26.232Z,93880.81
2022-12-08T09:26:52.988Z,93876.59
2022-12-08T09:29:19.794Z,93882.94
2022-12-08T09:31:46.644Z,93875.41
2022-12-08T09:34:13.555Z,93889.00
2022-12-08T09:36:40.716Z,93876.56
2022-12-08T09:39:07.805Z,93874.31
2022-12-08T09:41:48.344Z,93873.13
2022-12-08T09:44:46.473Z,93866.88
2022-12-08T09:47:21.499Z,93866.06
2022-12-08T09:50:07.549Z,93871.47
2022-12-08T09:52:42.172Z,93866.41
2022-12-08T09:55:24.552Z,93862.63
2022-12-08T09:58:01.989Z,93868.47
2022-12-08T10:00:28.894Z,93851.66
2022-12-08T10:02:56.708Z,93843.50
2022-12-08T10:05:25.958Z,93846.38
2022-12-08T10:08:11.642Z,93846.06
2022-12-08T10:10:59.135Z,93841.47
2022-12-08T10:13:56.371Z,93843.44
2022-12-08T10:16:39.127Z,93835.16
2022-12-08T10:19:15.405Z,93836.28
2022-12-08T10:21:42.750Z,93833.75
2022-12-08T10:24:37.630Z,93830.81
2022-12-08T10:27:05.837Z,93825.94
2022-12-08T10:29:33.609Z,93828.69
2022-12-08T10:32:01.093Z,93818.66
2022-12-08T10:34:28.142Z,93818.00
2022-12-08T10:37:00.770Z,93813.84
2022-12-08T10:39:40.272Z,93813.44
2022-12-08T10:42:17.004Z,93813.03
2022-12-08T10:44:58.152Z,93803.00
2022-12-08T10:47:28.264Z,93801.66
2022-12-08T10:50:22.117Z,93796.09
2022-12-08T10:52:59.848Z,93793.38
2022-12-08T10:55:28.958Z,93780.44
2022-12-08T10:57:55.750Z,93763.94
2022-12-08T11:00:27.648Z,93773.22
2022-12-08T11:03:03.525Z,93783.19
2022-12-08T11:05:35.902Z,93779.91
2022-12-08T11:08:04.616Z,93775.97
2022-12-08T11:10:43.115Z,93773.66
2022-12-08T11:13:29.985Z,93764.13
2022-12-08T11:15:57.593Z,93764.38
2022-12-08T11:18:44.159Z,93760.84
2022-12-08T11:21:17.747Z,93761.66
2022-12-08T11:23:50.875Z,93757.53
2022-12-08T11:26:32.524Z,93752.34
2022-12-08T11:28:59.445Z,93747.56
2022-12-08T11:31:43.946Z,93749.50
2022-12-08T11:34:30.756Z,93751.13
2022-12-08T11:36:59.155Z,93727.78
2022-12-08T11:39:28.674Z,93736.78
2022-12-08T11:41:58.126Z,93734.63
2022-12-08T11:44:36.018Z,93747.03
2022-12-08T11:47:14.471Z,93741.16
2022-12-08T11:49:43.053Z,93742.25
2022-12-08T11:52:30.948Z,93741.00
2022-12-08T11:55:37.200Z,93740.31
2022-12-08T11:58:29.504Z,93732.38
2022-12-08T12:00:56.734Z,93726.22
2022-12-08T12:04:12.680Z,93720.75
2022-12-08T12:07:26.237Z,93716.88
2022-12-08T12:10:46.405Z,93715.25
2022-12-08T12:13:53.664Z,93710.75
2022-12-08T12:17:01.909Z,93699.25
2022-12-08T12:19:34.524Z,93694.19
2022-12-08T12:22:16.654Z,93708.53
2022-12-08T12:24:48.062Z,93690.78
2022-12-08T12:27:14.729Z,93685.84
2022-12-08T12:30:04.078Z,93682.56
2022-12-08T12:33:01.992Z,93689.50
2022-12-08T12:35:45.013Z,93676.56
2022-12-08T12:38:47.341Z,93674.94
2022-12-08T12:41:16.972Z,93680.16
2022-12-08T12:44:26.717Z,93689.69
2022-12-08T12:46:59.310Z,93687.72
2022-12-08T12:49:38.060Z,93688.75
2022-12-08T12:52:10.567Z,93684.22
2022-12-08T12:54:43.892Z,93684.78
2022-12-08T12:57:10.534Z,93681.91
2022-12-08T12:59:56.112Z,93678.25
2022-12-08T13:02:44.740Z,93688.78
2022-12-08T13:05:34.281Z,93685.06
2022-12-08T13:08:07.984Z,93673.47
2022-12-08T13:10:38.304Z,93677.44
2022-12-08T13:13:09.851Z,93676.88
2022-12-08T13:15:39.332Z,93671.38
2022-12-08T13:18:18.774Z,93669.84
2022-12-08T13:21:09.294Z,93683.06
2022-12-08T13:23:38.507Z,93675.16
2022-12-08T13:26:21.070Z,93678.84
2022-12-08T13:29:03.997Z,93677.34
2022-12-08T13:32:14.050Z,93675.16
2022-12-08T13:34:56.000Z,93665.34
2022-12-08T13:37:28.862Z,93678.69
2022-12-08T13:40:19.529Z,93681.44
2022-12-08T13:43:16.429Z,93684.03
2022-12-08T13:55:25.845Z,93663.47
2022-12-08T13:57:36.403Z,93673.59
2022-12-08T14:00:15.691Z,93676.88
2022-12-08T14:02:48.189Z,93667.34
2022-12-08T14:05:19.818Z,93677.97
2022-12-08T14:07:52.557Z,93662.41
2022-12-08T14:10:28.025Z,93671.41
2022-12-08T14:13:03.192Z,93653.97
2022-12-08T14:15:37.746Z,93664.06
2022-12-08T14:18:07.454Z,93649.06
2022-12-08T14:20:57.978Z,93661.06
2022-12-08T14:23:22.442Z,93678.00
2022-12-08T14:25:49.308Z,93663.00
2022-12-08T14:28:16.802Z,93669.84
2022-12-08T14:30:43.610Z,93672.56
2022-12-08T14:33:17.149Z,93664.28
2022-12-08T14:35:52.501Z,93665.88
2022-12-08T14:38:21.653Z,93670.09
2022-12-08T14:41:08.977Z,93663.56
2022-12-08T14:43:36.380Z,93659.22
2022-12-08T14:46:24.696Z,93662.75
2022-12-08T14:48:52.227Z,93634.81
2022-12-08T14:51:18.910Z,93658.69
2022-12-08T14:53:55.368Z,93637.16
2022-12-08T14:56:32.486Z,93643.38
2022-12-08T14:59:27.167Z,93658.41
2022-12-08T15:02:11.562Z,93661.16
2022-12-08T15:04:41.266Z,93669.09
2022-12-08T15:07:15.416Z,93657.59
2022-12-08T15:09:50.176Z,93655.69
2022-12-08T15:12:27.290Z,93664.59
2022-12-08T15:15:23.266Z,93652.06
2022-12-08T15:17:58.778Z,93663.25
2022-12-08T15:20:28.756Z,93664.59
2022-12-08T15:22:58.580Z,93658.50
2022-12-08T15:25:25.633Z,93661.88
2022-12-08T15:28:01.828Z,93659.97
2022-12-08T15:30:28.843Z,93656.28
2022-12-08T15:32:56.430Z,93669.81
2022-12-08T15:35:23.300Z,93661.09
2022-12-08T15:37:50.286Z,93667.22
2022-12-08T15:40:22.895Z,93667.91
2022-12-08T15:42:49.853Z,93659.75
2022-12-08T15:45:17.543Z,93654.81
2022-12-08T15:47:45.801Z,93654.28
2022-12-08T15:50:23.600Z,93650.88
2022-12-08T15:52:51.286Z,93659.06
2022-12-08T15:55:20.456Z,93664.94
2022-12-08T16:00:54.838Z,93646.13
2022-12-08T16:03:59.892Z,93652.53
2022-12-08T16:09:12.501Z,93646.94
2022-12-08T16:12:08.254Z,93645.59
2022-12-08T16:17:25.135Z,93638.09
2022-12-08T16:19:52.033Z,93633.75
2022-12-08T16:25:20.316Z,93628.28
2022-12-08T16:28:29.490Z,93632.66
2022-12-08T16:30:37.846Z,93646.00
2022-12-08T16:33:05.220Z,93633.47
2022-12-08T16:35:31.957Z,93636.75
2022-12-08T16:37:58.787Z,93638.38
2022-12-08T16:40:25.727Z,93634.84
2022-12-08T16:42:52.914Z,93630.59
2022-12-08T16:45:22.419Z,93630.22
2022-12-08T16:48:00.407Z,93623.94
2022-12-08T16:50:33.447Z,93632.38
2022-12-08T16:53:09.145Z,93628.28
2022-12-08T16:55:35.904Z,93629.91
2022-12-08T16:58:03.730Z,93623.66
2022-12-08T17:00:37.125Z,93626.63
2022-12-08T17:03:05.872Z,93621.44
2022-12-08T17:05:32.684Z,93615.44
2022-12-08T17:07:59.617Z,93616.69
2022-12-08T17:10:30.248Z,93615.44
2022-12-08T17:12:57.206Z,93624.69
2022-12-08T17:15:26.049Z,93621.69
2022-12-08T17:17:53.723Z,93627.94
2022-12-08T17:20:25.946Z,93620.28
2022-12-08T17:22:58.127Z,93625.19
2022-12-08T17:25:26.568Z,93619.84
2022-12-08T17:27:53.347Z,93629.19
2022-12-08T17:30:20.248Z,93622.59
2022-12-08T17:32:47.043Z,93629.81
2022-12-08T17:35:14.551Z,93629.38
2022-12-08T17:37:43.025Z,93630.97
2022-12-08T17:40:10.212Z,93632.31
2022-12-08T17:42:38.146Z,93620.84
2022-12-08T17:45:07.532Z,93625.72
2022-12-08T17:47:34.684Z,93637.66
2022-12-08T17:50:02.143Z,93638.16
2022-12-08T17:52:29.229Z,93630.00
2022-12-08T17:54:56.048Z,93619.34
2022-12-08T17:57:22.753Z,93620.69
2022-12-08T17:59:49.490Z,93628.91
2022-12-08T18:02:16.320Z,93627.91
2022-12-08T18:04:43.094Z,93632.50
2022-12-08T18:07:11.219Z,93642.59
2022-12-08T18:09:38.123Z,93613.25
2022-12-08T18:12:05.217Z,93635.97
2022-12-08T18:14:32.076Z,93637.28
2022-12-08T18:16:58.853Z,93627.44
2022-12-08T18:19:26.356Z,93638.00
2022-12-08T18:21:53.117Z,93636.19
2022-12-08T18:24:22.619Z,93637.16
2022-12-08T18:26:52.211Z,93636.22
2022-12-08T18:29:21.593Z,93634.81
2022-12-08T18:31:48.621Z,93634.34
2022-12-08T18:34:15.638Z,93616.09
2022-12-08T18:36:42.550Z,93628.28
2022-12-08T18:39:22.151Z,93626.91
2022-12-08T18:41:49.043Z,93630.22
2022-12-08T18:44:15.813Z,93635.59
2022-12-08T18:46:42.585Z,93627.66
2022-12-08T18:49:13.215Z,93630.34
2022-12-08T18:51:40.085Z,93627.44
2022-12-08T18:54:06.835Z,93634.09
2022-12-08T18:56:35.238Z,93635.97
2022-12-08T18:59:10.321Z,93621.59
2022-12-08T19:01:39.793Z,93615.38
2022-12-08T19:06:57.389Z,93621.09
2022-12-08T19:09:26.883Z,93614.00
2022-12-08T19:11:53.931Z,93613.41
2022-12-08T19:14:25.916Z,93613.63
2022-12-08T19:16:54.870Z,93604.84
2022-12-08T19:19:21.727Z,93610.81
2022-12-08T19:21:48.452Z,93605.56
2022-12-08T19:24:15.569Z,93600.97
2022-12-08T19:26:42.748Z,93604.25
2022-12-08T19:29:09.802Z,93602.84
2022-12-08T19:31:36.771Z,93606.28
2022-12-08T19:34:05.332Z,93601.69
2022-12-08T19:36:35.676Z,93606.34
2022-12-08T19:39:23.123Z,93602.16
2022-12-08T19:42:09.412Z,93604.25
2022-12-08T19:44:54.534Z,93605.91
2022-12-08T19:47:24.741Z,93592.66
2022-12-08T19:49:54.890Z,93602.94
2022-12-08T19:52:21.817Z,93601.66
2022-12-08T19:54:51.589Z,93592.38
2022-12-08T19:57:20.495Z,93598.81
2022-12-08T19:59:50.483Z,93592.25
2022-12-08T20:02:21.678Z,93583.81
2022-12-08T20:04:48.472Z,93587.78
2022-12-08T20:07:15.218Z,93585.44
2022-12-08T20:09:41.974Z,93586.13
2022-12-08T20:12:08.675Z,93595.41
2022-12-08T20:14:35.414Z,93590.47
2022-12-08T20:17:02.216Z,93580.03
2022-12-08T20:19:28.956Z,93594.31
2022-12-08T20:21:57.686Z,93593.84
2022-12-08T20:24:24.519Z,93594.06
2022-12-08T20:26:51.496Z,93606.00
2022-12-08T20:29:18.907Z,93596.97
2022-12-08T20:31:45.894Z,93591.03
2022-12-08T20:34:17.453Z,93587.13
2022-12-08T20:36:45.509Z,93589.31
2022-12-08T20:39:16.220Z,93587.78
2022-12-08T20:41:45.483Z,93597.25
2022-12-08T20:44:12.528Z,93604.28
2022-12-08T20:46:39.473Z,93595.44
2022-12-08T20:49:06.866Z,93607.00
2022-12-08T20:51:34.063Z,93603.28
2022-12-08T20:54:01.260Z,93601.03
2022-12-08T20:56:28.250Z,93602.69
2022-12-08T20:58:56.243Z,93594.47
2022-12-08T21:01:25.176Z,93599.72
2022-12-08T21:03:52.486Z,93592.25
2022-12-08T21:06:27.054Z,93597.09
2022-12-08T21:08:54.533Z,93600.38
2022-12-08T21:11:21.496Z,93592.69
2022-12-08T21:13:48.307Z,93575.13
2022-12-08T21:16:16.059Z,93592.88
2022-12-08T21:18:43.169Z,93590.53
2022-12-08T21:21:13.045Z,93590.31
2022-12-08T21:23:41.404Z,93584.91
2022-12-08T21:26:20.779Z,93593.94
2022-12-08T21:28:48.014Z,93588.13
2022-12-08T21:31:18.306Z,93591.63
2022-12-08T21:33:45.222Z,93584.97
2022-12-08T21:36:17.177Z,93581.44
2022-12-08T21:38:45.013Z,93580.31
2022-12-08T21:41:16.159Z,93564.97
2022-12-08T21:43:43.743Z,93578.13
2022-12-08T21:46:19.197Z,93580.97
2022-12-08T21:48:46.543Z,93569.66
2022-12-08T21:51:13.587Z,93570.38
2022-12-08T21:53:40.472Z,93573.97
2022-12-08T21:56:10.399Z,93575.28
2022-12-08T21:58:37.329Z,93585.34
2022-12-08T22:01:08.940Z,93587.00
2022-12-08T22:03:37.045Z,93591.69
2022-12-08T22:06:06.390Z,93597.47
2022-12-08T22:08:33.321Z,93579.94
2022-12-08T22:11:00.834Z,93591.91
2022-12-08T22:13:28.056Z,93580.81
2022-12-08T22:16:03.859Z,93589.84
2022-12-08T22:18:31.443Z,93579.31
2022-12-08T22:20:58.488Z,93584.56
2022-12-08T22:23:25.367Z,93579.94
2022-12-08T22:26:00.493Z,93578.31
2022-12-08T22:28:34.653Z,93583.59
2022-12-08T22:31:07.427Z,93576.59
2022-12-08T22:33:34.272Z,93573.31
2022-12-08T22:36:09.803Z,93577.28
2022-12-08T22:38:37.848Z,93558.13
2022-12-08T22:41:05.828Z,93563.03
2022-12-08T22:43:33.755Z,93566.75
2022-12-08T22:46:00.752Z,93554.84
2022-12-08T22:48:27.647Z,93547.84
2022-12-08T22:51:01.391Z,93536.59
2022-12-08T22:53:28.623Z,93537.31
2022-12-08T22:55:55.380Z,93527.34
2022-12-08T22:58:22.423Z,93524.22
2022-12-08T23:00:50.043Z,93524.63
2022-12-08T23:03:17.115Z,93518.78
2022-12-08T23:05:44.005Z,93516.19
2022-12-08T23:08:15.968Z,93515.84
2022-12-08T23:10:44.366Z,93518.19
2022-12-08T23:13:12.926Z,93513.19
2022-12-08T23:15:41.010Z,93514.59
2022-12-08T23:18:08.663Z,93512.72
2022-12-08T23:20:35.821Z,93511.78
2022-12-08T23:23:02.657Z,93501.75
2022-12-08T23:25:29.485Z,93507.25
2022-12-08T23:27:56.430Z,93490.91
2022-12-08T23:30:24.436Z,93509.03
2022-12-08T23:32:56.031Z,93507.75
2022-12-08T23:35:23.133Z,93514.56
2022-12-08T23:37:49.875Z,93486.84
2022-12-08T23:40:16.927Z,93466.53
2022-12-08T23:42:43.886Z,93484.66
2022-12-08T23:45:11.582Z,93478.34
2022-12-08T23:47:38.337Z,93473.69
2022-12-08T23:50:07.617Z,93477.41
2022-12-08T23:52:34.747Z,93467.34
2022-12-08T23:55:01.461Z,93465.72
2022-12-08T23:57:28.221Z,93474.13
2022-12-08T23:59:55.058Z,93470.63
